Freeman, Washington
Current Conditions -  °F | °C
As of 2:53 PM on Thursday 27 Nov 2014 (Local Time) from KSFF Reporting Station
Overcast Overcast  
Wind Chill: 55°   Ceiling: 9000
Heat Index: 55°   Visibility: 10mi
Dew Point: 42°   Wind: 14mph
Humidity: 62%   Direction: 230°SW
Pressure: 29.8"   Gusts: 25mph
Location:  47.52°N, 117.2°W
Report Text: KSFF 272253Z 23012G22KT 10SM FEW048 BKN090 OVC110 13/06 A2980 RMK AO2 SLP089 T01280056
Loading
Personal Weather Stations






























Interactive Weather Map New forecast layout! Learn more

10-Day Weather Forecast

Advertisements
Track Severe Weather on mobile